createdAt,value
2017-08-11T00:00:22.292Z,0
2017-08-11T00:01:32.641Z,0
2017-08-11T00:02:43.677Z,0
2017-08-11T00:03:54.041Z,0
2017-08-11T00:05:04.443Z,0
2017-08-11T00:06:14.809Z,0
2017-08-11T00:07:24.840Z,0
2017-08-11T00:08:34.885Z,0
2017-08-11T00:09:44.930Z,0
2017-08-11T00:10:55.332Z,0
2017-08-11T00:12:05.383Z,0
2017-08-11T00:13:15.421Z,0
2017-08-11T00:14:25.458Z,0
2017-08-11T00:15:35.810Z,0
2017-08-11T00:16:46.223Z,0
2017-08-11T00:17:56.249Z,0
2017-08-11T00:19:06.337Z,0
2017-08-11T00:20:17.743Z,0
2017-08-11T00:21:28.089Z,0
2017-08-11T00:22:37.868Z,0
2017-08-11T00:23:47.610Z,0
2017-08-11T00:24:57.965Z,0
2017-08-11T00:26:08.314Z,0
2017-08-11T00:27:18.038Z,0
2017-08-11T00:28:28.445Z,0
2017-08-11T00:29:38.200Z,0
2017-08-11T00:30:48.232Z,0
2017-08-11T00:31:58.579Z,0
2017-08-11T00:33:08.633Z,0
2017-08-11T00:34:18.416Z,0
2017-08-11T00:35:28.778Z,0
2017-08-11T00:36:38.825Z,0
2017-08-11T00:37:48.875Z,0
2017-08-11T00:38:58.907Z,0
2017-08-11T00:40:09.305Z,0
2017-08-11T00:41:19.675Z,0
2017-08-11T00:42:30.042Z,0
2017-08-11T00:43:40.078Z,0
2017-08-11T00:44:50.424Z,0
2017-08-11T00:46:00.495Z,0
2017-08-11T00:47:10.537Z,0
2017-08-11T00:48:20.904Z,0
2017-08-11T00:49:31.242Z,0
2017-08-11T00:50:41.601Z,0
2017-08-11T00:51:51.704Z,0
2017-08-11T00:53:01.753Z,0
2017-08-11T00:54:11.492Z,0
2017-08-11T00:55:21.845Z,0
2017-08-11T00:56:31.893Z,0
2017-08-11T00:57:42.294Z,0
2017-08-11T00:58:52.009Z,0
2017-08-11T01:00:02.354Z,0
2017-08-11T01:01:12.087Z,0
2017-08-11T01:02:21.803Z,0
2017-08-11T01:03:31.898Z,0
2017-08-11T01:04:41.935Z,0
2017-08-11T01:05:52.298Z,0
2017-08-11T01:07:02.683Z,0
2017-08-11T01:08:13.051Z,0
2017-08-11T01:09:23.431Z,0
2017-08-11T01:10:33.477Z,0
2017-08-11T01:11:43.830Z,0
2017-08-11T01:12:53.885Z,0
2017-08-11T01:14:03.609Z,0
2017-08-11T01:15:13.389Z,0
2017-08-11T01:16:23.727Z,0
2017-08-11T01:17:33.445Z,0
2017-08-11T01:18:43.778Z,0
2017-08-11T01:19:54.136Z,0
2017-08-11T01:21:04.222Z,0
2017-08-11T01:22:14.572Z,0
2017-08-11T01:23:24.922Z,0
2017-08-11T01:24:35.259Z,0
2017-08-11T01:25:45.619Z,0
2017-08-11T01:26:55.712Z,0
2017-08-11T01:28:05.758Z,0
2017-08-11T01:29:16.116Z,0
2017-08-11T01:30:26.153Z,0
2017-08-11T01:31:35.878Z,0
2017-08-11T01:32:46.288Z,0
2017-08-11T01:33:56.338Z,0
2017-08-11T01:35:05.756Z,0
2017-08-11T01:36:15.792Z,0
2017-08-11T01:37:25.542Z,0
2017-08-11T01:38:35.940Z,0
2017-08-11T01:39:45.656Z,0
2017-08-11T01:40:56.011Z,0
2017-08-11T01:42:06.356Z,0
2017-08-11T01:43:16.403Z,0
2017-08-11T01:44:26.488Z,0
2017-08-11T01:45:36.521Z,0
2017-08-11T01:46:46.566Z,0
2017-08-11T01:47:58.376Z,0
2017-08-11T01:49:08.416Z,0
2017-08-11T01:50:18.513Z,0
2017-08-11T01:51:28.869Z,0
2017-08-11T01:52:38.603Z,0
2017-08-11T01:53:48.632Z,0
2017-08-11T01:54:58.674Z,0
2017-08-11T01:56:09.095Z,0
2017-08-11T01:57:19.445Z,0
2017-08-11T01:58:29.801Z,0
2017-08-11T01:59:40.142Z,0
2017-08-11T02:00:50.189Z,0
2017-08-11T02:02:00.290Z,0
2017-08-11T02:03:10.652Z,0
2017-08-11T02:04:20.400Z,0
2017-08-11T02:05:30.768Z,0
2017-08-11T02:06:40.502Z,0
2017-08-11T02:07:50.582Z,0
2017-08-11T02:09:00.935Z,0
2017-08-11T02:10:10.979Z,0
2017-08-11T02:11:21.321Z,0
2017-08-11T02:12:31.672Z,0
2017-08-11T02:13:41.467Z,0
2017-08-11T02:14:51.187Z,0
2017-08-11T02:16:00.936Z,0
2017-08-11T02:17:11.308Z,0
2017-08-11T02:18:21.344Z,0
2017-08-11T02:19:31.773Z,0
2017-08-11T02:20:41.490Z,0
2017-08-11T02:21:51.219Z,0
2017-08-11T02:23:00.950Z,0
2017-08-11T02:24:10.992Z,0
2017-08-11T02:25:21.398Z,0
2017-08-11T02:26:31.115Z,0
2017-08-11T02:27:41.150Z,0
2017-08-11T02:28:51.507Z,0
2017-08-11T02:30:00.917Z,0
2017-08-11T02:31:11.312Z,0
2017-08-11T02:32:21.685Z,0
2017-08-11T02:33:32.031Z,0
2017-08-11T02:34:41.772Z,0
2017-08-11T02:35:51.496Z,0
2017-08-11T02:37:01.593Z,0
2017-08-11T02:38:11.980Z,0
2017-08-11T02:39:22.358Z,0
2017-08-11T02:40:32.723Z,0
2017-08-11T02:41:42.790Z,0
2017-08-11T02:42:53.172Z,0
2017-08-11T02:44:03.228Z,0
2017-08-11T02:45:13.269Z,0
2017-08-11T02:46:23.617Z,0
2017-08-11T02:47:33.650Z,0
2017-08-11T02:48:43.424Z,0
2017-08-11T02:49:53.481Z,0
2017-08-11T02:51:03.530Z,0
2017-08-11T02:52:13.589Z,0
2017-08-11T02:53:23.625Z,0
2017-08-11T02:54:34.020Z,0
2017-08-11T02:55:44.369Z,0
2017-08-11T02:56:54.089Z,0
2017-08-11T02:58:04.150Z,0
2017-08-11T02:59:14.203Z,0
2017-08-11T03:00:23.973Z,0
2017-08-11T03:01:34.304Z,0
2017-08-11T03:33:55.383Z,0
2017-08-11T03:35:05.099Z,0
2017-08-11T03:36:15.134Z,0
2017-08-11T03:37:24.857Z,0
2017-08-11T03:38:34.884Z,0
2017-08-11T03:39:45.313Z,0
2017-08-11T03:40:55.030Z,0
2017-08-11T03:42:05.067Z,0
2017-08-11T03:43:15.404Z,0
2017-08-11T03:44:25.769Z,5
2017-08-11T03:45:35.863Z,5
2017-08-11T03:46:46.218Z,5
2017-08-11T03:47:56.276Z,5
2017-08-11T03:49:06.619Z,5
2017-08-11T03:50:16.673Z,5
2017-08-11T03:51:26.145Z,5
2017-08-11T03:52:36.179Z,10
2017-08-11T03:53:46.542Z,10
2017-08-11T03:54:56.891Z,10
2017-08-11T03:56:07.261Z,10
2017-08-11T03:57:17.370Z,15
2017-08-11T03:58:27.404Z,15
2017-08-11T03:59:37.448Z,15
2017-08-11T04:00:47.806Z,15
2017-08-11T04:01:57.511Z,20
2017-08-11T04:03:07.592Z,20
2017-08-11T04:04:17.002Z,20
2017-08-11T04:05:26.735Z,20
2017-08-11T04:06:36.779Z,25
2017-08-11T04:07:46.909Z,25
2017-08-11T04:08:57.312Z,25
2017-08-11T04:10:07.351Z,30
2017-08-11T04:11:17.405Z,30
2017-08-11T04:12:27.740Z,30
2017-08-11T04:13:37.473Z,30
2017-08-11T04:14:47.565Z,30
2017-08-11T04:15:57.917Z,35
2017-08-11T04:17:07.959Z,40
2017-08-11T04:18:18.343Z,45
2017-08-11T04:19:28.379Z,45
2017-08-11T04:20:38.464Z,50
2017-08-11T04:21:49.011Z,50
2017-08-11T04:22:59.422Z,55
2017-08-11T04:24:09.448Z,60
2017-08-11T04:25:19.800Z,65
2017-08-11T04:26:29.875Z,65
2017-08-11T04:27:39.918Z,65
2017-08-11T04:28:49.648Z,70
2017-08-11T04:30:00.003Z,70
2017-08-11T04:31:09.749Z,75
2017-08-11T04:32:20.178Z,75
2017-08-11T04:33:30.546Z,75
2017-08-11T04:34:40.939Z,80
2017-08-11T04:35:50.966Z,80
2017-08-11T04:37:00.998Z,75
2017-08-11T04:38:11.096Z,70
2017-08-11T04:39:21.439Z,70
2017-08-11T04:40:31.785Z,70
2017-08-11T04:41:42.123Z,70
2017-08-11T04:42:52.485Z,70
2017-08-11T04:44:02.884Z,75
2017-08-11T04:45:13.223Z,75
2017-08-11T04:46:23.271Z,80
2017-08-11T04:47:33.326Z,90
2017-08-11T04:48:43.688Z,100
2017-08-11T04:49:54.325Z,110
2017-08-11T04:51:04.677Z,120
2017-08-11T04:52:15.035Z,135
2017-08-11T04:53:25.400Z,175
2017-08-11T04:54:35.466Z,115
2017-08-11T04:55:45.556Z,130
2017-08-11T04:56:55.586Z,115
2017-08-11T04:58:05.690Z,115
2017-08-11T04:59:16.052Z,120
2017-08-11T05:00:26.086Z,130
2017-08-11T05:01:36.485Z,130
2017-08-11T05:02:46.533Z,130
2017-08-11T05:03:56.587Z,135
2017-08-11T05:05:06.962Z,100
2017-08-11T05:06:16.998Z,95
2017-08-11T05:07:27.396Z,90
2017-08-11T05:08:37.444Z,90
2017-08-11T05:09:47.478Z,90
2017-08-11T05:10:57.828Z,85
2017-08-11T05:12:07.886Z,80
2017-08-11T05:13:18.290Z,85
2017-08-11T05:14:28.340Z,85
2017-08-11T05:15:38.404Z,95
2017-08-11T05:16:48.457Z,100
2017-08-11T05:17:58.829Z,110
2017-08-11T05:19:09.230Z,120
2017-08-11T05:20:19.253Z,130
2017-08-11T05:21:29.611Z,115
2017-08-11T05:22:39.968Z,120
2017-08-11T05:23:50.005Z,200
2017-08-11T05:25:00.430Z,145
2017-08-11T05:26:10.833Z,90
2017-08-11T05:27:21.185Z,90
2017-08-11T05:28:31.230Z,90
2017-08-11T05:29:41.581Z,90
2017-08-11T05:30:51.990Z,145
2017-08-11T05:32:02.042Z,165
2017-08-11T05:33:12.410Z,175
2017-08-11T05:34:22.779Z,155
2017-08-11T05:35:32.814Z,160
2017-08-11T05:36:43.218Z,125
2017-08-11T05:37:53.260Z,80
2017-08-11T05:39:03.617Z,80
2017-08-11T05:40:13.997Z,80
2017-08-11T05:41:24.373Z,85
2017-08-11T05:42:34.802Z,90
2017-08-11T05:43:45.185Z,95
2017-08-11T05:44:55.553Z,95
2017-08-11T05:46:05.599Z,100
2017-08-11T05:47:15.636Z,105
2017-08-11T05:48:26.025Z,105
2017-08-11T05:49:36.370Z,105
2017-08-11T05:50:46.416Z,105
2017-08-11T05:51:56.447Z,110
2017-08-11T05:53:06.784Z,100
2017-08-11T05:54:16.882Z,100
2017-08-11T05:55:27.236Z,100
2017-08-11T05:56:37.274Z,100
2017-08-11T05:57:47.323Z,100
2017-08-11T05:58:57.674Z,100
2017-08-11T06:00:08.068Z,105
2017-08-11T06:01:18.433Z,105
2017-08-11T06:02:28.774Z,105
2017-08-11T06:03:38.830Z,110
2017-08-11T06:04:48.876Z,120
2017-08-11T06:05:58.659Z,125
2017-08-11T06:07:08.992Z,130
2017-08-11T06:08:19.036Z,130
2017-08-11T06:09:29.410Z,135
2017-08-11T06:10:39.761Z,140
2017-08-11T06:11:51.620Z,145
2017-08-11T06:13:01.970Z,150
2017-08-11T06:14:12.021Z,155
2017-08-11T06:15:22.361Z,165
2017-08-11T06:16:32.433Z,170
2017-08-11T06:17:42.850Z,175
2017-08-11T06:18:53.221Z,200
2017-08-11T06:20:03.574Z,205
2017-08-11T06:21:13.612Z,210
2017-08-11T06:22:23.983Z,210
2017-08-11T06:23:34.102Z,215
2017-08-11T06:24:44.470Z,210
2017-08-11T06:25:54.520Z,215
2017-08-11T06:27:04.873Z,215
2017-08-11T06:28:15.220Z,210
2017-08-11T06:29:25.629Z,210
2017-08-11T06:30:35.679Z,210
2017-08-11T06:31:45.714Z,210
2017-08-11T06:32:55.757Z,205
2017-08-11T06:34:05.178Z,210
2017-08-11T06:35:15.603Z,215
2017-08-11T06:36:25.659Z,220
2017-08-11T06:37:35.720Z,230
2017-08-11T06:38:46.072Z,230
2017-08-11T06:39:56.442Z,215
2017-08-11T06:41:06.856Z,220
2017-08-11T06:42:17.223Z,215
2017-08-11T06:43:27.286Z,200
2017-08-11T06:44:37.319Z,190
2017-08-11T06:45:47.369Z,220
2017-08-11T06:46:57.767Z,220
2017-08-11T06:48:08.123Z,215
2017-08-11T06:49:18.150Z,205
2017-08-11T06:50:27.876Z,200
2017-08-11T06:51:38.225Z,205
2017-08-11T06:52:48.638Z,200
2017-08-11T06:53:59.009Z,210
2017-08-11T06:55:09.374Z,215
2017-08-11T06:56:19.738Z,220
2017-08-11T06:57:30.108Z,220
2017-08-11T06:58:40.505Z,215
2017-08-11T06:59:50.859Z,185
2017-08-11T07:01:01.213Z,200
2017-08-11T07:02:11.274Z,180
2017-08-11T07:03:21.641Z,205
2017-08-11T07:04:31.403Z,200
2017-08-11T07:05:41.432Z,195
2017-08-11T07:06:51.780Z,165
2017-08-11T07:08:01.811Z,150
2017-08-11T07:09:11.855Z,155
2017-08-11T07:10:22.262Z,175
2017-08-11T07:11:32.301Z,205
2017-08-11T07:12:42.669Z,215
2017-08-11T07:13:54.483Z,210
2017-08-11T07:15:04.821Z,205
2017-08-11T07:16:15.229Z,230
2017-08-11T07:17:25.283Z,245
2017-08-11T07:18:35.353Z,255
2017-08-11T07:19:45.390Z,245
2017-08-11T07:20:55.777Z,245
2017-08-11T07:22:05.871Z,240
2017-08-11T07:23:16.220Z,230
2017-08-11T07:24:26.567Z,220
2017-08-11T07:25:36.951Z,210
2017-08-11T07:26:47.298Z,200
2017-08-11T07:27:57.712Z,195
2017-08-11T07:29:08.059Z,195
2017-08-11T07:30:18.105Z,195
2017-08-11T07:31:28.463Z,195
2017-08-11T07:32:38.822Z,190
2017-08-11T07:33:49.250Z,190
2017-08-11T07:34:59.291Z,180
2017-08-11T07:36:09.331Z,180
2017-08-11T07:37:19.367Z,180
2017-08-11T07:38:29.717Z,180
2017-08-11T07:39:39.814Z,175
2017-08-11T07:40:49.859Z,175
2017-08-11T07:41:59.926Z,175
2017-08-11T07:43:10.279Z,180
2017-08-11T07:44:20.317Z,180
2017-08-11T07:45:30.740Z,185
2017-08-11T07:46:41.092Z,195
2017-08-11T07:47:51.457Z,205
2017-08-11T07:49:01.500Z,210
2017-08-11T07:50:11.877Z,215
2017-08-11T07:51:22.289Z,215
2017-08-11T07:52:32.343Z,210
2017-08-11T07:53:42.703Z,215
2017-08-11T07:54:53.079Z,220
2017-08-11T07:56:03.421Z,230
2017-08-11T07:57:13.824Z,230
2017-08-11T07:58:23.874Z,230
2017-08-11T07:59:33.921Z,235
2017-08-11T08:00:43.971Z,250
2017-08-11T08:01:53.720Z,260
2017-08-11T08:03:04.134Z,250
2017-08-11T08:04:14.502Z,240
2017-08-11T08:05:24.866Z,225
2017-08-11T08:06:35.227Z,215
2017-08-11T08:07:45.594Z,205
2017-08-11T08:08:56.002Z,200
2017-08-11T08:10:06.351Z,210
2017-08-11T08:11:16.699Z,215
2017-08-11T08:12:27.048Z,255
2017-08-11T08:13:37.099Z,285
2017-08-11T08:14:47.211Z,320
2017-08-11T08:15:57.579Z,325
2017-08-11T08:17:07.625Z,315
2017-08-11T08:18:17.995Z,275
2017-08-11T08:19:28.373Z,275
2017-08-11T08:20:38.807Z,275
2017-08-11T08:21:48.851Z,280
2017-08-11T08:22:59.220Z,275
2017-08-11T08:24:09.272Z,280
2017-08-11T08:25:19.657Z,280
2017-08-11T08:26:30.065Z,285
2017-08-11T08:27:39.794Z,295
2017-08-11T08:28:50.159Z,285
2017-08-11T08:30:00.501Z,270
2017-08-11T08:31:10.850Z,250
2017-08-11T08:32:21.252Z,235
2017-08-11T08:33:31.306Z,220
2017-08-11T08:34:41.655Z,200
2017-08-11T08:35:51.991Z,185
2017-08-11T08:37:02.381Z,170
2017-08-11T08:38:12.464Z,160
2017-08-11T08:39:24.564Z,160
2017-08-11T08:40:34.943Z,150
2017-08-11T08:41:45.305Z,145
2017-08-11T08:42:55.347Z,135
2017-08-11T08:44:05.745Z,125
2017-08-11T08:45:16.091Z,120
2017-08-11T08:46:26.435Z,115
2017-08-11T08:47:36.784Z,120
2017-08-11T08:48:47.148Z,125
2017-08-11T08:49:57.566Z,125
2017-08-11T08:51:07.605Z,135
2017-08-11T08:52:17.974Z,140
2017-08-11T08:53:28.336Z,145
2017-08-11T08:54:38.689Z,145
2017-08-11T08:55:48.789Z,145
2017-08-11T08:56:59.149Z,145
2017-08-11T08:58:09.197Z,140
2017-08-11T08:59:19.561Z,140
2017-08-11T09:00:29.949Z,135
2017-08-11T09:01:40.367Z,120
2017-08-11T09:02:50.753Z,115
2017-08-11T09:04:01.114Z,110
2017-08-11T09:05:11.470Z,110
2017-08-11T09:06:21.836Z,105
2017-08-11T09:07:32.244Z,105
2017-08-11T09:08:42.620Z,110
2017-08-11T09:09:52.651Z,110
2017-08-11T09:11:03.023Z,115
2017-08-11T09:12:13.374Z,110
2017-08-11T09:13:23.791Z,105
2017-08-11T09:14:34.172Z,95
2017-08-11T09:15:44.533Z,85
2017-08-11T09:16:55.541Z,80
2017-08-11T09:18:05.893Z,75
2017-08-11T09:19:16.308Z,65
2017-08-11T09:20:26.043Z,60
2017-08-11T09:21:36.396Z,60
2017-08-11T09:22:46.769Z,55
2017-08-11T09:23:58.273Z,55
2017-08-11T09:25:08.718Z,50
2017-08-11T09:26:19.082Z,50
2017-08-11T09:27:29.439Z,50
2017-08-11T09:28:39.500Z,50
2017-08-11T09:29:49.849Z,55
2017-08-11T09:31:00.306Z,55
2017-08-11T09:32:10.646Z,60
2017-08-11T09:33:20.052Z,65
2017-08-11T09:34:30.418Z,70
2017-08-11T09:35:40.794Z,75
2017-08-11T09:36:50.593Z,85
2017-08-11T09:38:00.946Z,85
2017-08-11T09:39:11.308Z,95
2017-08-11T09:40:21.352Z,110
2017-08-11T09:41:31.700Z,120
2017-08-11T09:42:41.153Z,140
2017-08-11T09:43:50.863Z,145
2017-08-11T09:45:01.224Z,140
2017-08-11T09:46:11.608Z,140
2017-08-11T09:47:21.672Z,150
2017-08-11T09:48:32.056Z,150
2017-08-11T09:49:42.421Z,180
2017-08-11T09:50:53.365Z,285
2017-08-11T09:52:03.414Z,415
2017-08-11T09:53:13.151Z,415
2017-08-11T09:54:23.576Z,405
2017-08-11T09:55:33.921Z,375
2017-08-11T09:56:44.296Z,305
2017-08-11T09:57:54.668Z,270
2017-08-11T09:59:04.692Z,255
2017-08-11T10:00:15.123Z,235
2017-08-11T10:01:25.470Z,255
2017-08-11T10:02:35.508Z,250
2017-08-11T10:03:45.548Z,240
2017-08-11T10:04:55.897Z,260
2017-08-11T10:06:06.315Z,250
2017-08-11T10:07:16.358Z,230
2017-08-11T10:08:26.422Z,235
2017-08-11T10:09:36.501Z,250
2017-08-11T10:10:46.874Z,280
2017-08-11T10:11:56.975Z,320
2017-08-11T10:13:07.348Z,360
2017-08-11T10:14:17.398Z,360
2017-08-11T10:15:27.783Z,335
2017-08-11T10:16:37.823Z,320
2017-08-11T10:17:47.910Z,310
2017-08-11T10:18:58.272Z,290
2017-08-11T10:20:08.631Z,270
2017-08-11T10:21:18.987Z,275
2017-08-11T10:22:29.022Z,255
2017-08-11T10:23:39.439Z,250
2017-08-11T10:24:49.790Z,250
2017-08-11T10:25:59.539Z,230
2017-08-11T10:27:09.903Z,245
2017-08-11T10:28:20.259Z,245
2017-08-11T10:29:30.363Z,255
2017-08-11T10:30:40.885Z,245
2017-08-11T10:31:50.931Z,240
2017-08-11T10:33:01.011Z,240
2017-08-11T10:34:11.362Z,240
2017-08-11T10:35:21.783Z,215
2017-08-11T10:36:31.833Z,205
2017-08-11T10:37:42.201Z,245
2017-08-11T10:38:52.566Z,250
2017-08-11T10:40:02.944Z,235
2017-08-11T10:41:13.305Z,250
2017-08-11T10:42:23.654Z,275
2017-08-11T10:43:34.019Z,290
2017-08-11T10:44:44.389Z,285
2017-08-11T10:45:54.848Z,290
2017-08-11T10:47:05.209Z,275
2017-08-11T10:48:15.562Z,260
2017-08-11T10:49:25.600Z,250
2017-08-11T10:50:35.993Z,245
2017-08-11T10:51:46.411Z,240
2017-08-11T10:52:56.767Z,240
2017-08-11T10:54:07.131Z,240
2017-08-11T10:55:17.512Z,245
2017-08-11T10:56:27.866Z,245
2017-08-11T10:57:37.978Z,230
2017-08-11T10:58:48.355Z,245
2017-08-11T10:59:58.721Z,270
2017-08-11T11:01:09.087Z,260
2017-08-11T11:02:19.154Z,250
2017-08-11T11:03:29.557Z,245
2017-08-11T11:04:39.286Z,245
2017-08-11T11:05:49.336Z,245
2017-08-11T11:06:59.691Z,240
2017-08-11T11:08:10.076Z,240
2017-08-11T11:09:20.482Z,240
2017-08-11T11:10:30.541Z,245
2017-08-11T11:11:40.900Z,240
2017-08-11T11:12:51.296Z,240
2017-08-11T11:14:01.681Z,240
2017-08-11T11:15:12.087Z,235
2017-08-11T11:16:22.433Z,240
2017-08-11T11:17:32.796Z,240
2017-08-11T11:18:42.855Z,240
2017-08-11T11:19:52.886Z,245
2017-08-11T11:21:03.314Z,220
2017-08-11T11:22:13.697Z,235
2017-08-11T11:23:24.042Z,230
2017-08-11T11:24:34.417Z,245
2017-08-11T11:25:44.782Z,250
2017-08-11T11:26:55.206Z,245
2017-08-11T11:28:05.572Z,235
2017-08-11T11:29:15.936Z,180
2017-08-11T11:30:26.328Z,170
2017-08-11T11:31:36.711Z,175
2017-08-11T11:32:48.321Z,265
2017-08-11T11:33:58.729Z,235
2017-08-11T11:35:09.083Z,195
2017-08-11T11:36:19.450Z,230
2017-08-11T11:37:29.830Z,245
2017-08-11T11:38:40.262Z,225
2017-08-11T11:39:50.327Z,260
2017-08-11T11:41:00.702Z,285
2017-08-11T11:42:10.736Z,315
2017-08-11T11:43:21.134Z,315
2017-08-11T11:44:31.565Z,315
2017-08-11T11:45:41.931Z,270
2017-08-11T11:46:52.294Z,290
2017-08-11T11:48:02.649Z,265
2017-08-11T11:49:13.009Z,275
2017-08-11T11:50:23.435Z,270
2017-08-11T11:51:33.486Z,215
2017-08-11T11:52:43.853Z,160
2017-08-11T11:53:54.236Z,150
2017-08-11T11:55:04.586Z,155
2017-08-11T11:56:15.006Z,155
2017-08-11T11:57:25.380Z,170
2017-08-11T11:58:36.182Z,175
2017-08-11T11:59:46.547Z,190
2017-08-11T12:00:57.416Z,195
2017-08-11T12:02:07.566Z,190
2017-08-11T12:03:17.934Z,220
2017-08-11T12:04:27.999Z,260
2017-08-11T12:05:38.359Z,295
2017-08-11T12:06:48.721Z,290
2017-08-11T12:07:59.143Z,285
2017-08-11T12:09:09.180Z,310
2017-08-11T12:10:19.524Z,230
2017-08-11T12:11:29.892Z,215
2017-08-11T12:12:40.250Z,220
2017-08-11T12:13:50.651Z,305
2017-08-11T12:15:00.390Z,335
2017-08-11T12:16:10.746Z,300
2017-08-11T12:17:21.100Z,295
2017-08-11T12:18:31.483Z,265
2017-08-11T12:19:41.909Z,290
2017-08-11T12:20:54.076Z,200
2017-08-11T12:22:04.442Z,185
2017-08-11T12:23:14.493Z,230
2017-08-11T12:24:24.853Z,275
2017-08-11T12:25:34.934Z,300
2017-08-11T12:26:45.289Z,290
2017-08-11T12:27:56.319Z,270
2017-08-11T12:29:06.693Z,300
2017-08-11T12:30:17.082Z,310
2017-08-11T12:31:27.490Z,300
2017-08-11T12:32:37.840Z,315
2017-08-11T12:33:48.206Z,305
2017-08-11T12:34:58.566Z,325
2017-08-11T12:36:08.938Z,325
2017-08-11T12:37:19.347Z,275
2017-08-11T12:38:29.705Z,250
2017-08-11T12:39:39.747Z,205
2017-08-11T12:40:49.784Z,190
2017-08-11T12:42:00.167Z,185
2017-08-11T12:43:10.284Z,190
2017-08-11T12:44:20.030Z,230
2017-08-11T12:45:29.762Z,175
2017-08-11T12:46:40.116Z,175
2017-08-11T12:47:50.177Z,175
2017-08-11T12:49:00.266Z,260
2017-08-11T12:50:11.843Z,195
2017-08-11T12:51:22.227Z,210
2017-08-11T12:52:32.581Z,205
2017-08-11T12:53:42.625Z,195
2017-08-11T12:54:52.400Z,200
2017-08-11T12:56:02.761Z,200
2017-08-11T12:57:12.816Z,200
2017-08-11T12:58:23.177Z,245
2017-08-11T12:59:33.557Z,280
2017-08-11T13:00:43.954Z,185
2017-08-11T13:01:54.327Z,175
2017-08-11T13:03:04.715Z,165
2017-08-11T13:04:14.449Z,165
2017-08-11T13:05:24.804Z,170
2017-08-11T13:06:34.887Z,165
2017-08-11T13:07:45.262Z,170
2017-08-11T13:08:54.996Z,165
2017-08-11T13:10:05.355Z,165
2017-08-11T13:11:15.402Z,165
2017-08-11T13:12:25.828Z,160
2017-08-11T13:13:35.869Z,170
2017-08-11T13:14:46.219Z,180
2017-08-11T13:15:55.946Z,250
2017-08-11T13:17:06.301Z,295
2017-08-11T13:18:16.708Z,325
2017-08-11T13:19:26.766Z,345
2017-08-11T13:20:37.116Z,350
2017-08-11T13:21:47.179Z,355
2017-08-11T13:22:57.606Z,355
2017-08-11T13:24:08.025Z,350
2017-08-11T13:25:18.410Z,330
2017-08-11T13:26:28.451Z,325
2017-08-11T13:27:38.784Z,305
2017-08-11T13:28:49.137Z,310
2017-08-11T13:29:59.553Z,305
2017-08-11T13:31:09.919Z,235
2017-08-11T13:32:19.968Z,290
2017-08-11T13:33:30.009Z,290
2017-08-11T13:34:40.365Z,215
2017-08-11T13:35:50.773Z,260
2017-08-11T13:37:00.810Z,190
2017-08-11T13:38:11.165Z,175
2017-08-11T13:39:21.540Z,185
2017-08-11T13:40:31.912Z,215
2017-08-11T13:41:42.016Z,165
2017-08-11T13:42:52.376Z,185
2017-08-11T13:44:02.741Z,210
2017-08-11T13:45:13.128Z,160
2017-08-11T13:46:23.193Z,165
2017-08-11T13:47:32.972Z,160
2017-08-11T13:48:44.415Z,165
2017-08-11T13:49:54.462Z,165
2017-08-11T13:51:04.829Z,170
2017-08-11T13:52:15.175Z,190
2017-08-11T13:53:25.611Z,195
2017-08-11T13:54:35.652Z,245
2017-08-11T13:55:46.850Z,210
2017-08-11T13:56:57.232Z,265
2017-08-11T13:58:07.269Z,240
2017-08-11T13:59:17.682Z,210
2017-08-11T14:00:28.037Z,200
2017-08-11T14:01:38.387Z,205
2017-08-11T14:02:48.449Z,195
2017-08-11T14:03:58.798Z,190
2017-08-11T14:05:09.205Z,190
2017-08-11T14:06:19.586Z,185
2017-08-11T14:07:29.949Z,185
2017-08-11T14:08:40.331Z,180
2017-08-11T14:09:50.694Z,170
2017-08-11T14:11:01.103Z,165
2017-08-11T14:12:12.412Z,150
2017-08-11T14:13:22.452Z,150
2017-08-11T14:14:32.494Z,160
2017-08-11T14:15:42.866Z,175
2017-08-11T14:16:53.279Z,175
2017-08-11T14:18:03.340Z,180
2017-08-11T14:19:13.738Z,180
2017-08-11T14:20:24.092Z,190
2017-08-11T14:21:34.442Z,185
2017-08-11T14:22:44.862Z,180
2017-08-11T14:23:54.953Z,175
2017-08-11T14:25:05.318Z,175
2017-08-11T14:26:15.359Z,170
2017-08-11T14:27:25.413Z,170
2017-08-11T14:28:35.844Z,175
2017-08-11T14:29:46.205Z,175
2017-08-11T14:30:56.567Z,180
2017-08-11T14:32:06.913Z,185
2017-08-11T14:33:17.273Z,190
2017-08-11T14:34:27.709Z,190
2017-08-11T14:35:38.075Z,195
2017-08-11T14:36:48.435Z,195
2017-08-11T14:37:58.784Z,195
2017-08-11T14:39:09.144Z,195
2017-08-11T14:40:19.557Z,195
2017-08-11T14:41:29.935Z,195
2017-08-11T14:42:40.290Z,190
2017-08-11T14:43:50.644Z,195
2017-08-11T14:45:01.001Z,190
2017-08-11T14:46:11.429Z,185
2017-08-11T14:47:21.807Z,180
2017-08-11T14:48:31.856Z,180
2017-08-11T14:49:41.891Z,170
2017-08-11T14:50:51.975Z,160
2017-08-11T14:52:02.081Z,155
2017-08-11T14:53:12.459Z,150
2017-08-11T14:54:22.213Z,145
2017-08-11T14:55:32.575Z,145
2017-08-11T14:56:42.287Z,145
2017-08-11T14:57:52.385Z,145
2017-08-11T14:59:02.745Z,145
2017-08-11T15:00:13.107Z,140
2017-08-11T15:01:23.471Z,135
2017-08-11T15:02:35.205Z,130
2017-08-11T15:03:46.503Z,130
2017-08-11T15:04:56.888Z,130
2017-08-11T15:06:07.249Z,130
2017-08-11T15:07:17.302Z,135
2017-08-11T15:08:27.659Z,130
2017-08-11T15:09:37.143Z,120
2017-08-11T15:10:47.486Z,115
2017-08-11T15:11:57.225Z,110
2017-08-11T15:13:07.593Z,110
2017-08-11T15:14:17.947Z,110
2017-08-11T15:15:28.361Z,110
2017-08-11T15:16:38.715Z,115
2017-08-11T15:17:49.083Z,115
2017-08-11T15:18:59.444Z,120
2017-08-11T15:20:09.827Z,120
2017-08-11T15:21:20.240Z,125
2017-08-11T15:22:30.302Z,130
2017-08-11T15:23:40.659Z,130
2017-08-11T15:24:50.694Z,130
2017-08-11T15:26:01.642Z,130
2017-08-11T15:27:12.064Z,130
2017-08-11T15:28:22.436Z,130
2017-08-11T15:29:32.801Z,130
2017-08-11T15:30:43.173Z,130
2017-08-11T15:31:53.548Z,125
2017-08-11T15:33:03.961Z,130
2017-08-11T15:34:13.699Z,130
2017-08-11T15:35:24.040Z,130
2017-08-11T15:36:34.091Z,135
2017-08-11T15:37:44.149Z,135
2017-08-11T15:38:54.559Z,135
2017-08-11T15:40:04.915Z,140
2017-08-11T15:41:14.964Z,130
2017-08-11T15:42:25.034Z,125
2017-08-11T15:43:35.420Z,125
2017-08-11T15:44:45.549Z,130
2017-08-11T15:45:55.621Z,130
2017-08-11T15:47:06.008Z,130
2017-08-11T15:48:16.373Z,130
2017-08-11T15:49:26.420Z,125
2017-08-11T15:50:36.835Z,115
2017-08-11T15:51:46.874Z,110
2017-08-11T15:52:56.946Z,110
2017-08-11T15:54:07.007Z,105
2017-08-11T15:55:17.364Z,110
2017-08-11T15:56:27.802Z,115
2017-08-11T15:57:38.163Z,125
2017-08-11T15:58:47.908Z,125
2017-08-11T15:59:57.963Z,130
2017-08-11T16:01:08.006Z,130
2017-08-11T16:02:18.408Z,135
2017-08-11T16:03:28.768Z,130
2017-08-11T16:04:38.813Z,120
2017-08-11T16:05:49.186Z,115
2017-08-11T16:06:59.568Z,95
2017-08-11T16:08:09.983Z,85
2017-08-11T16:09:20.031Z,70
2017-08-11T16:10:30.379Z,70
2017-08-11T16:11:40.732Z,75
2017-08-11T16:12:51.086Z,75
2017-08-11T16:14:01.492Z,75
2017-08-11T16:15:11.867Z,80
2017-08-11T16:16:22.225Z,80
2017-08-11T16:17:32.604Z,85
2017-08-11T16:18:44.813Z,80
2017-08-11T16:19:55.235Z,70
2017-08-11T16:21:05.623Z,65
2017-08-11T16:22:16.009Z,60
2017-08-11T16:23:26.388Z,50
2017-08-11T16:24:36.128Z,40
2017-08-11T16:25:46.532Z,35
2017-08-11T16:26:56.889Z,40
2017-08-11T16:28:07.251Z,40
2017-08-11T16:29:17.321Z,40
2017-08-11T16:30:27.690Z,35
2017-08-11T16:31:37.474Z,35
2017-08-11T16:32:47.834Z,35
2017-08-11T16:33:58.213Z,40
2017-08-11T16:35:08.576Z,40
2017-08-11T16:36:18.927Z,40
2017-08-11T16:37:29.338Z,40
2017-08-11T16:38:39.400Z,40
2017-08-11T16:39:49.753Z,40
2017-08-11T16:40:59.806Z,40
2017-08-11T16:42:10.197Z,45
2017-08-11T16:43:20.623Z,45
2017-08-11T16:44:30.981Z,50
2017-08-11T16:45:41.329Z,45
2017-08-11T16:46:51.687Z,40
2017-08-11T16:48:02.046Z,45
2017-08-11T16:49:12.458Z,50
2017-08-11T16:50:22.200Z,55
2017-08-11T16:51:32.556Z,50
2017-08-11T16:52:42.929Z,55
2017-08-11T16:53:52.978Z,55
2017-08-11T16:55:03.086Z,55
2017-08-11T16:56:13.459Z,50
2017-08-11T16:57:23.827Z,45